Time;durP1;ratioP1;P1;durP2;ratioP2;P2;SDS_P1;SDS_P2;PMS_P1;PMS_P2;Temp;Humidity;BMP_temperature;BMP_pressure;BME280_temperature;BME280_humidity;BME280_pressure;Samples;Min_cycle;Max_cycle;Signal;HPM_P1;HPM_P2
2024/03/07 00:00:17;;;;;;;25.75;17.88;;;10.60;79.60;;;;;;4987878;28;20062;-79
2024/03/07 00:02:51;;;;;;;25.38;18.63;;;10.60;79.60;;;;;;5004402;28;20161;-79
2024/03/07 00:05:18;;;;;;;24.13;17.97;;;10.60;79.60;;;;;;4994247;28;20034;-93
2024/03/07 00:07:45;;;;;;;27.55;19.33;;;10.50;79.60;;;;;;4996780;28;20026;-87
2024/03/07 00:10:12;;;;;;;24.83;18.55;;;10.50;79.60;;;;;;5011647;28;20050;-89
2024/03/07 00:12:40;;;;;;;27.58;20.13;;;10.50;79.60;;;;;;5009254;28;20022;-81
2024/03/07 00:15:11;;;;;;;26.17;18.77;;;10.50;79.60;;;;;;5002520;28;20117;-81
2024/03/07 00:17:37;;;;;;;25.95;19.23;;;10.50;79.70;;;;;;5004363;28;20029;-81
2024/03/07 00:20:08;;;;;;;25.10;19.17;;;10.40;79.60;;;;;;4984147;28;20030;-81
2024/03/07 00:22:37;;;;;;;23.85;18.02;;;10.40;79.60;;;;;;5004891;28;20033;-80
2024/03/07 00:25:06;;;;;;;27.27;20.02;;;10.40;79.70;;;;;;5003305;28;20030;-79
2024/03/07 00:27:33;;;;;;;25.38;18.73;;;10.40;79.70;;;;;;5006783;28;20442;-90
2024/03/07 00:29:59;;;;;;;27.38;19.73;;;10.40;79.70;;;;;;5005835;28;20041;-93
2024/03/07 00:32:29;;;;;;;26.77;19.55;;;10.30;79.60;;;;;;5004511;28;20030;-79
2024/03/07 00:34:56;;;;;;;24.77;19.13;;;10.40;79.70;;;;;;5012278;28;20140;-92
2024/03/07 00:37:30;;;;;;;25.55;19.27;;;10.30;79.70;;;;;;5016908;28;20053;-95
2024/03/07 00:39:57;;;;;;;25.35;18.50;;;10.30;79.60;;;;;;5013653;28;20109;-78
2024/03/07 00:42:23;;;;;;;26.85;19.48;;;10.30;79.60;;;;;;4994927;28;20034;-90
2024/03/07 00:44:49;;;;;;;26.60;19.13;;;10.30;79.60;;;;;;5002821;28;20083;-80
2024/03/07 00:47:18;;;;;;;26.42;19.35;;;10.20;79.60;;;;;;4991873;28;20041;-88
2024/03/07 00:49:47;;;;;;;27.17;19.85;;;10.30;79.50;;;;;;5013534;28;20036;-86
2024/03/07 00:52:15;;;;;;;26.10;18.67;;;10.20;79.50;;;;;;5010086;28;20027;-93
2024/03/07 00:54:41;;;;;;;25.30;19.10;;;10.20;79.50;;;;;;4999595;28;20048;-95
2024/03/07 00:57:08;;;;;;;28.70;20.33;;;10.20;79.60;;;;;;4999714;28;20030;-94
2024/03/07 00:59:33;;;;;;;27.42;19.83;;;10.10;79.50;;;;;;5005615;28;20058;-80
2024/03/07 01:01:59;;;;;;;25.95;20.20;;;10.10;79.50;;;;;;4995927;28;20022;-95
2024/03/07 01:04:31;;;;;;;25.95;19.48;;;10.10;79.50;;;;;;4999121;28;20512;-95
2024/03/07 01:06:58;;;;;;;25.58;18.73;;;10.10;79.50;;;;;;5008486;28;20027;-80
2024/03/07 01:09:30;;;;;;;26.25;19.90;;;10.10;79.50;;;;;;5007105;28;20034;-95
2024/03/07 01:11:56;;;;;;;26.63;19.65;;;10.10;79.50;;;;;;5002494;28;20076;-88
2024/03/07 01:14:23;;;;;;;27.98;20.70;;;10.00;79.50;;;;;;5006973;28;20430;-78
2024/03/07 01:16:48;;;;;;;25.17;19.30;;;10.00;79.50;;;;;;5008755;28;20018;-79
2024/03/07 01:19:14;;;;;;;25.13;18.88;;;10.00;79.50;;;;;;5012287;28;20037;-95
2024/03/07 01:21:40;;;;;;;26.15;20.67;;;10.00;79.50;;;;;;5003328;28;20120;-96
2024/03/07 01:24:06;;;;;;;25.65;19.92;;;10.00;79.50;;;;;;5015511;28;20033;-79
2024/03/07 01:26:33;;;;;;;27.83;19.75;;;10.00;79.50;;;;;;4997423;28;20033;-95
2024/03/07 01:29:00;;;;;;;27.85;20.38;;;9.90;79.50;;;;;;4995640;28;20030;-80
2024/03/07 01:31:26;;;;;;;27.00;19.65;;;9.90;79.50;;;;;;4989005;28;20466;-96
2024/03/07 01:33:52;;;;;;;26.42;20.00;;;9.90;79.50;;;;;;4993285;28;20037;-78
2024/03/07 01:36:20;;;;;;;26.10;19.58;;;9.90;79.50;;;;;;5007844;28;20040;-79
2024/03/07 01:38:46;;;;;;;26.73;20.23;;;9.90;79.50;;;;;;4991346;28;20513;-94
2024/03/07 01:41:15;;;;;;;27.45;20.70;;;9.90;79.50;;;;;;5003431;28;20518;-80
2024/03/07 01:43:42;;;;;;;27.92;20.85;;;9.90;79.50;;;;;;5001258;28;20041;-79
2024/03/07 01:46:10;;;;;;;28.20;20.48;;;9.80;79.50;;;;;;5011523;28;20395;-91
2024/03/07 01:48:36;;;;;;;28.73;20.65;;;9.80;79.50;;;;;;4999738;28;20076;-78
2024/03/07 01:51:05;;;;;;;27.63;20.83;;;9.80;79.50;;;;;;5005634;28;20021;-80
2024/03/07 01:53:33;;;;;;;26.95;19.90;;;9.80;79.50;;;;;;4990046;28;20061;-96
2024/03/07 01:56:00;;;;;;;26.90;19.67;;;9.80;79.50;;;;;;4990752;28;20030;-79
2024/03/07 01:58:26;;;;;;;28.33;20.33;;;9.80;79.50;;;;;;4988926;28;20026;-79
2024/03/07 02:00:52;;;;;;;26.33;20.75;;;9.70;79.50;;;;;;5002805;28;20018;-95
2024/03/07 02:03:18;;;;;;;27.35;19.77;;;9.70;79.50;;;;;;4996417;28;20552;-88
2024/03/07 02:05:44;;;;;;;28.52;21.00;;;9.70;79.50;;;;;;5007559;28;20022;-88
2024/03/07 02:08:11;;;;;;;29.10;21.52;;;9.70;79.50;;;;;;5005312;28;20402;-80
2024/03/07 02:10:38;;;;;;;27.17;20.70;;;9.70;79.50;;;;;;5001863;28;20030;-89
2024/03/07 02:13:04;;;;;;;27.33;20.67;;;9.70;79.50;;;;;;5001394;28;20037;-89
2024/03/07 02:15:29;;;;;;;28.77;21.05;;;9.70;79.50;;;;;;5007618;28;20060;-96
2024/03/07 02:17:55;;;;;;;29.98;20.45;;;9.60;79.50;;;;;;5002926;28;20022;-88
2024/03/07 02:20:24;;;;;;;29.65;21.10;;;9.60;79.50;;;;;;4993141;28;20127;-88
2024/03/07 02:22:50;;;;;;;29.45;20.30;;;9.60;79.50;;;;;;5006008;28;20118;-89
2024/03/07 02:25:16;;;;;;;27.40;20.15;;;9.50;79.50;;;;;;4986298;28;20046;-80
2024/03/07 02:27:42;;;;;;;27.85;21.35;;;9.60;79.50;;;;;;4992278;28;20112;-80
2024/03/07 02:30:08;;;;;;;28.42;21.33;;;9.50;79.40;;;;;;4993359;28;20474;-79
2024/03/07 02:32:36;;;;;;;25.20;19.35;;;9.50;79.50;;;;;;4995379;28;20037;-80
2024/03/07 02:35:06;;;;;;;26.48;19.30;;;9.50;79.50;;;;;;5006774;28;20022;-88
2024/03/07 02:37:36;;;;;;;27.25;19.05;;;9.50;79.50;;;;;;5011438;28;20029;-79
2024/03/07 02:40:02;;;;;;;27.42;20.35;;;9.50;79.50;;;;;;4992045;28;20030;-94
2024/03/07 02:42:28;;;;;;;28.50;20.63;;;9.50;79.50;;;;;;5014663;28;20088;-96
2024/03/07 02:44:54;;;;;;;30.20;21.33;;;9.40;79.50;;;;;;5008873;28;20034;-96
2024/03/07 02:47:20;;;;;;;26.42;20.40;;;9.40;79.50;;;;;;4995163;28;20077;-95
2024/03/07 02:49:46;;;;;;;28.65;21.00;;;9.40;79.50;;;;;;5003155;28;20058;-94
2024/03/07 02:52:12;;;;;;;26.98;20.25;;;9.40;79.50;;;;;;5004772;28;20030;-79
2024/03/07 02:54:38;;;;;;;26.67;19.88;;;9.40;79.50;;;;;;4991423;28;20026;-94
2024/03/07 02:57:04;;;;;;;26.45;19.17;;;9.30;79.50;;;;;;5007576;28;20469;-95
2024/03/07 02:59:29;;;;;;;29.00;20.13;;;9.30;79.50;;;;;;4991673;28;20029;-89
2024/03/07 03:01:55;;;;;;;27.70;19.85;;;9.40;79.60;;;;;;4986935;28;20023;-80
2024/03/07 03:04:23;;;;;;;25.60;19.67;;;9.30;79.50;;;;;;5017294;28;20124;-80
2024/03/07 03:06:48;;;;;;;26.50;20.23;;;9.30;79.50;;;;;;4992112;28;20106;-95
2024/03/07 03:09:17;;;;;;;27.33;19.83;;;9.30;79.50;;;;;;5008018;28;20038;-95
2024/03/07 03:11:44;;;;;;;28.00;21.25;;;9.30;79.50;;;;;;4996786;28;20032;-94
2024/03/07 03:14:11;;;;;;;26.10;20.25;;;9.30;79.60;;;;;;5009367;28;20497;-95
2024/03/07 03:16:36;;;;;;;26.38;19.50;;;9.30;79.60;;;;;;5006772;28;20042;-79
2024/03/07 03:19:02;;;;;;;27.52;20.10;;;9.20;79.50;;;;;;4993665;28;20017;-79
2024/03/07 03:21:28;;;;;;;28.27;20.65;;;9.20;79.50;;;;;;4987024;28;20482;-78
2024/03/07 03:23:56;;;;;;;28.23;20.38;;;9.20;79.50;;;;;;5003756;28;20386;-88
2024/03/07 03:26:22;;;;;;;26.05;20.15;;;9.20;79.50;;;;;;4988916;28;20018;-80
2024/03/07 03:28:48;;;;;;;27.20;20.05;;;9.20;79.50;;;;;;5008162;28;20030;-93
2024/03/07 03:31:14;;;;;;;27.05;20.85;;;9.10;79.50;;;;;;5021583;28;20084;-93
2024/03/07 03:33:40;;;;;;;26.85;20.90;;;9.20;79.50;;;;;;4989626;28;20121;-78
2024/03/07 03:36:07;;;;;;;25.05;19.20;;;9.10;79.50;;;;;;5005676;28;20041;-89
2024/03/07 03:38:33;;;;;;;25.67;19.90;;;9.10;79.50;;;;;;5015766;28;20033;-80
2024/03/07 03:40:58;;;;;;;29.42;21.73;;;9.10;79.50;;;;;;5019760;28;20023;-89
2024/03/07 03:43:24;;;;;;;26.45;20.60;;;9.10;79.50;;;;;;5004078;28;20034;-88
2024/03/07 03:45:50;;;;;;;29.40;21.33;;;9.10;79.50;;;;;;5021259;28;20022;-96
2024/03/07 03:48:16;;;;;;;28.23;20.88;;;9.10;79.50;;;;;;4992149;28;20046;-80
2024/03/07 03:50:42;;;;;;;28.52;21.02;;;9.00;79.50;;;;;;4987208;28;20581;-80
2024/03/07 03:53:08;;;;;;;28.33;21.33;;;9.10;79.60;;;;;;4984898;28;20034;-89
2024/03/07 03:55:34;;;;;;;28.13;21.02;;;9.10;79.60;;;;;;5006161;28;20485;-79
2024/03/07 03:57:59;;;;;;;28.25;21.10;;;9.10;79.60;;;;;;5008942;28;20435;-79
2024/03/07 04:00:25;;;;;;;28.77;20.70;;;9.00;79.50;;;;;;5009269;28;20064;-80
2024/03/07 04:02:51;;;;;;;29.92;21.63;;;9.00;79.50;;;;;;4990053;28;20030;-96
2024/03/07 04:05:20;;;;;;;28.98;20.90;;;9.00;79.60;;;;;;5031881;28;20022;-95
2024/03/07 04:07:46;;;;;;;29.45;20.70;;;9.00;79.60;;;;;;5011398;28;20097;-96
2024/03/07 04:10:14;;;;;;;30.25;21.45;;;9.00;79.50;;;;;;5007522;28;20125;-88
2024/03/07 04:12:41;;;;;;;28.88;20.83;;;8.90;79.50;;;;;;4994133;28;20029;-88
2024/03/07 04:15:09;;;;;;;28.92;20.73;;;9.00;79.60;;;;;;4994667;28;20113;-80
2024/03/07 04:17:35;;;;;;;29.85;20.55;;;8.90;79.60;;;;;;5012298;28;20029;-94
2024/03/07 04:20:05;;;;;;;27.88;21.33;;;8.90;79.60;;;;;;5000196;28;20022;-95
2024/03/07 04:22:35;;;;;;;30.33;22.35;;;8.90;79.60;;;;;;4997091;28;20018;-78
2024/03/07 04:25:01;;;;;;;29.83;21.52;;;8.90;79.60;;;;;;4991872;28;20038;-88
2024/03/07 04:27:27;;;;;;;28.00;20.40;;;8.90;79.60;;;;;;5009944;28;20164;-94
2024/03/07 04:29:53;;;;;;;29.63;21.67;;;8.90;79.70;;;;;;5016854;28;20050;-88
2024/03/07 04:32:19;;;;;;;27.48;20.17;;;8.80;79.60;;;;;;5011309;28;20058;-89
2024/03/07 04:34:45;;;;;;;26.73;19.55;;;8.80;79.70;;;;;;4991997;28;20080;-79
2024/03/07 04:37:11;;;;;;;27.77;20.55;;;8.80;79.70;;;;;;4997872;28;20069;-94
2024/03/07 04:39:39;;;;;;;29.95;20.83;;;8.80;79.70;;;;;;4998280;28;20034;-86
2024/03/07 04:42:07;;;;;;;29.05;21.33;;;8.80;79.70;;;;;;5011213;28;20049;-77
2024/03/07 04:44:35;;;;;;;26.35;20.23;;;8.80;79.70;;;;;;4995940;28;20029;-93
2024/03/07 04:47:04;;;;;;;26.63;20.85;;;8.80;79.70;;;;;;4990499;28;20062;-78
2024/03/07 04:49:31;;;;;;;30.20;21.40;;;8.80;79.70;;;;;;4993073;28;20026;-93
2024/03/07 04:51:59;;;;;;;27.67;20.40;;;8.80;79.70;;;;;;5016398;28;20456;-94
2024/03/07 04:54:26;;;;;;;29.35;21.33;;;8.80;79.70;;;;;;4995023;28;20037;-79
2024/03/07 04:56:53;;;;;;;27.27;20.30;;;8.70;79.70;;;;;;5029547;28;20064;-79
2024/03/07 04:59:20;;;;;;;32.45;21.00;;;8.70;79.70;;;;;;5010199;28;20122;-86
2024/03/07 05:01:47;;;;;;;28.27;20.77;;;8.70;79.70;;;;;;5013995;28;20374;-77
2024/03/07 05:04:14;;;;;;;26.30;20.60;;;8.70;79.70;;;;;;4994450;28;20129;-86
2024/03/07 05:06:40;;;;;;;27.85;20.08;;;8.70;79.70;;;;;;5019860;28;20018;-78
2024/03/07 05:09:08;;;;;;;27.38;20.30;;;8.70;79.70;;;;;;4991858;28;20036;-92
2024/03/07 05:11:35;;;;;;;27.30;20.52;;;8.70;79.70;;;;;;5011727;28;20117;-78
2024/03/07 05:14:02;;;;;;;30.50;22.60;;;8.70;79.70;;;;;;5004476;28;20116;-79
2024/03/07 05:16:29;;;;;;;27.88;20.45;;;8.70;79.70;;;;;;4991203;28;20117;-93
2024/03/07 05:18:59;;;;;;;27.67;20.48;;;8.60;79.70;;;;;;4993069;28;20567;-78
2024/03/07 05:21:40;;;;;;;28.80;21.20;;;8.60;79.70;;;;;;5009532;28;20021;-95
2024/03/07 05:24:07;;;;;;;26.50;19.95;;;8.60;79.70;;;;;;5005573;28;20034;-92
2024/03/07 05:26:37;;;;;;;29.27;21.15;;;8.60;79.70;;;;;;5022175;28;20029;-79
2024/03/07 05:29:10;;;;;;;28.90;21.48;;;8.60;79.70;;;;;;5009018;28;20049;-79
2024/03/07 05:31:44;;;;;;;28.17;21.55;;;8.60;79.70;;;;;;5010258;28;20033;-88
2024/03/07 05:34:09;;;;;;;28.92;20.52;;;8.50;79.70;;;;;;4988328;28;20022;-79
2024/03/07 05:36:36;;;;;;;28.33;20.52;;;8.50;79.70;;;;;;5007777;28;20034;-78
2024/03/07 05:39:10;;;;;;;28.38;21.15;;;8.50;79.80;;;;;;5002055;28;20120;-78
2024/03/07 05:41:37;;;;;;;26.80;20.98;;;8.50;79.70;;;;;;5011754;28;20057;-93
2024/03/07 05:44:04;;;;;;;27.55;19.95;;;8.50;79.70;;;;;;4992074;28;20029;-96
2024/03/07 05:46:30;;;;;;;28.92;21.40;;;8.50;79.70;;;;;;5020948;28;20034;-79
2024/03/07 05:48:56;;;;;;;28.58;21.20;;;8.50;79.80;;;;;;4995729;28;20405;-78
2024/03/07 05:51:23;;;;;;;27.55;20.73;;;8.50;79.80;;;;;;4989680;28;20026;-79
2024/03/07 05:53:59;;;;;;;27.35;20.42;;;8.40;79.70;;;;;;5008147;28;20450;-88
2024/03/07 05:56:28;;;;;;;27.20;19.38;;;8.50;79.80;;;;;;4994833;28;20058;-88
2024/03/07 05:58:54;;;;;;;28.33;20.77;;;8.40;79.70;;;;;;4994496;28;20050;-93
2024/03/07 06:01:20;;;;;;;27.08;20.60;;;8.40;79.70;;;;;;5005360;28;20045;-94
2024/03/07 06:03:48;;;;;;;27.60;20.63;;;8.40;80.40;;;;;;4993843;28;20108;-94
2024/03/07 06:06:14;;;;;;;27.42;20.58;;;8.40;79.80;;;;;;4994142;28;20347;-93
2024/03/07 06:08:42;;;;;;;28.02;20.55;;;8.40;79.80;;;;;;5005896;28;20038;-93
2024/03/07 06:11:09;;;;;;;29.60;21.10;;;8.40;79.80;;;;;;5002236;28;20052;-87
2024/03/07 06:13:35;;;;;;;29.75;20.50;;;8.40;79.80;;;;;;4993709;28;20464;-78
2024/03/07 06:16:05;;;;;;;29.15;21.38;;;8.40;79.80;;;;;;5002431;28;20035;-80
2024/03/07 06:18:31;;;;;;;26.85;19.90;;;8.30;79.70;;;;;;4984102;28;20018;-88
2024/03/07 06:20:57;;;;;;;26.33;20.35;;;8.30;79.80;;;;;;4994682;28;20050;-88
2024/03/07 06:23:24;;;;;;;27.55;19.40;;;8.30;79.70;;;;;;5021023;28;20455;-79
2024/03/07 06:25:54;;;;;;;25.85;19.80;;;8.30;79.70;;;;;;5005940;28;20386;-79
2024/03/07 06:28:20;;;;;;;26.10;21.10;;;8.30;80.30;;;;;;5008512;28;20029;-88
2024/03/07 06:30:49;;;;;;;27.70;20.25;;;8.30;79.70;;;;;;4994715;28;20014;-89
2024/03/07 06:33:16;;;;;;;25.00;18.88;;;8.30;79.70;;;;;;4986769;28;20041;-79
2024/03/07 06:35:42;;;;;;;25.90;20.20;;;8.30;79.70;;;;;;5008177;28;20042;-80
2024/03/07 06:38:11;;;;;;;26.50;20.35;;;8.30;79.70;;;;;;5006365;28;20038;-79
2024/03/07 06:40:44;;;;;;;27.20;19.77;;;8.30;79.70;;;;;;5007057;28;20030;-80
2024/03/07 06:43:10;;;;;;;25.30;19.63;;;8.30;79.80;;;;;;5002350;28;20033;-94
2024/03/07 06:45:41;;;;;;;26.42;19.95;;;8.30;79.80;;;;;;4996856;28;20220;-80
2024/03/07 06:48:08;;;;;;;25.55;19.52;;;8.20;79.70;;;;;;4990402;28;20076;-79
2024/03/07 06:50:35;;;;;;;26.63;19.83;;;8.20;79.80;;;;;;5003841;28;20402;-82
2024/03/07 06:53:01;;;;;;;25.73;19.52;;;8.20;79.70;;;;;;5010994;28;20026;-93
2024/03/07 06:55:27;;;;;;;26.85;20.58;;;8.20;79.80;;;;;;5004908;28;20037;-89
2024/03/07 06:57:54;;;;;;;25.65;18.27;;;8.20;79.70;;;;;;5003936;28;20030;-78
2024/03/07 07:00:20;;;;;;;25.67;20.25;;;8.20;79.80;;;;;;4991714;28;20026;-86
2024/03/07 07:02:48;;;;;;;26.80;19.60;;;8.20;79.80;;;;;;4992348;28;20026;-85
2024/03/07 07:05:18;;;;;;;26.25;19.70;;;8.20;80.40;;;;;;5020871;28;20404;-81
2024/03/07 07:07:47;;;;;;;25.35;18.73;;;8.20;79.80;;;;;;5012496;28;20050;-78
2024/03/07 07:10:17;;;;;;;25.52;19.40;;;8.20;79.80;;;;;;4992592;28;20060;-78
2024/03/07 07:12:48;;;;;;;25.10;18.58;;;8.10;79.80;;;;;;4991274;28;20033;-79
2024/03/07 07:15:18;;;;;;;24.15;18.83;;;8.20;79.80;;;;;;5008620;28;20389;-87
2024/03/07 07:17:51;;;;;;;26.85;19.80;;;8.10;79.70;;;;;;4996991;28;20508;-79
2024/03/07 07:20:17;;;;;;;24.23;18.30;;;8.20;79.80;;;;;;4992851;28;20073;-88
2024/03/07 07:22:46;;;;;;;26.58;19.58;;;8.10;79.80;;;;;;4992799;28;20034;-96
2024/03/07 07:25:15;;;;;;;23.80;18.52;;;8.10;79.80;;;;;;5006647;28;20030;-79
2024/03/07 07:27:46;;;;;;;24.33;18.60;;;8.10;79.80;;;;;;5005185;28;20026;-78
2024/03/07 07:30:13;;;;;;;25.27;18.80;;;8.10;79.80;;;;;;5006811;28;20068;-78
2024/03/07 07:32:40;;;;;;;24.45;18.35;;;8.10;79.80;;;;;;5009133;28;20447;-78
2024/03/07 07:35:11;;;;;;;24.77;18.35;;;8.10;79.80;;;;;;5012699;28;20057;-87
2024/03/07 07:37:41;;;;;;;26.98;20.10;;;8.10;79.80;;;;;;4996794;28;20492;-78
2024/03/07 07:40:14;;;;;;;24.40;18.75;;;8.10;79.80;;;;;;4998197;28;20077;-94
2024/03/07 07:42:46;;;;;;;23.92;18.55;;;8.10;79.80;;;;;;5012320;28;20038;-80
2024/03/07 07:45:13;;;;;;;24.17;18.80;;;8.10;79.90;;;;;;4996795;28;20034;-87
2024/03/07 07:47:41;;;;;;;23.88;18.35;;;8.10;79.80;;;;;;5011785;28;20033;-78
2024/03/07 07:50:17;;;;;;;22.88;18.00;;;8.10;79.80;;;;;;5004666;28;20029;-79
2024/03/07 07:52:50;;;;;;;25.55;19.55;;;8.10;79.90;;;;;;5003352;28;20029;-78
2024/03/07 07:55:17;;;;;;;23.65;18.13;;;8.10;79.80;;;;;;4993246;28;20085;-95
2024/03/07 07:57:48;;;;;;;22.52;17.13;;;8.10;79.90;;;;;;5013930;28;20029;-78
2024/03/07 08:00:22;;;;;;;22.02;16.98;;;8.00;79.80;;;;;;5001288;28;20054;-85
2024/03/07 08:02:54;;;;;;;23.02;18.25;;;8.00;79.80;;;;;;5006779;28;20018;-78
2024/03/07 08:05:22;;;;;;;22.08;17.80;;;8.10;79.90;;;;;;4998575;28;20573;-94
2024/03/07 08:07:50;;;;;;;22.90;17.98;;;8.10;79.90;;;;;;4982941;28;20015;-81
2024/03/07 08:10:17;;;;;;;21.80;17.42;;;8.10;79.90;;;;;;4994851;28;20033;-86
2024/03/07 08:12:43;;;;;;;24.70;18.52;;;8.00;79.80;;;;;;4996171;28;20045;-84
2024/03/07 08:15:16;;;;;;;22.50;17.63;;;8.00;79.80;;;;;;4997718;28;20456;-77
2024/03/07 08:17:46;;;;;;;22.80;17.23;;;8.10;79.90;;;;;;4994293;28;20078;-80
2024/03/07 08:20:18;;;;;;;22.60;17.52;;;8.00;79.80;;;;;;5001347;28;20524;-81
2024/03/07 08:22:44;;;;;;;21.58;17.25;;;8.10;79.90;;;;;;5009832;28;20026;-90
2024/03/07 08:25:12;;;;;;;23.55;17.58;;;8.00;79.80;;;;;;5013593;28;20030;-92
2024/03/07 08:27:39;;;;;;;22.52;17.48;;;8.10;79.90;;;;;;5009327;28;20543;-78
2024/03/07 08:30:06;;;;;;;23.25;17.80;;;8.10;79.90;;;;;;4996781;28;20022;-92
2024/03/07 08:32:36;;;;;;;22.05;17.02;;;8.00;79.80;;;;;;5015000;28;20026;-78
2024/03/07 08:35:06;;;;;;;22.20;17.90;;;8.00;79.80;;;;;;4999008;28;20450;-78
2024/03/07 08:37:39;;;;;;;23.88;17.70;;;8.10;79.90;;;;;;5009699;28;20030;-91
2024/03/07 08:40:06;;;;;;;22.63;17.10;;;8.10;79.90;;;;;;5011410;28;20121;-81
2024/03/07 08:42:36;;;;;;;20.40;16.70;;;8.10;79.90;;;;;;5012371;28;20041;-95
2024/03/07 08:45:06;;;;;;;20.95;17.33;;;8.10;79.90;;;;;;4991341;28;20044;-90
2024/03/07 08:47:36;;;;;;;22.33;16.98;;;8.10;79.90;;;;;;5013660;28;20076;-86
2024/03/07 08:50:08;;;;;;;21.90;16.98;;;8.10;79.90;;;;;;4987543;28;20034;-79
2024/03/07 08:52:37;;;;;;;21.08;16.70;;;8.10;79.90;;;;;;5007949;28;20036;-78
2024/03/07 08:55:04;;;;;;;19.45;15.43;;;8.10;79.90;;;;;;4992641;28;20520;-78
2024/03/07 08:57:30;;;;;;;19.73;16.35;;;8.10;79.90;;;;;;4989298;28;20485;-85
2024/03/07 08:59:56;;;;;;;20.08;16.70;;;8.10;79.90;;;;;;4994938;28;20029;-83
2024/03/07 09:02:24;;;;;;;21.27;16.95;;;8.20;80.00;;;;;;5005544;28;20035;-81
2024/03/07 09:04:50;;;;;;;21.35;16.63;;;8.20;79.90;;;;;;5010018;28;20037;-81
2024/03/07 09:07:17;;;;;;;20.48;16.40;;;8.20;79.90;;;;;;5021864;28;20101;-78
2024/03/07 09:09:45;;;;;;;22.30;16.58;;;8.20;79.90;;;;;;5010529;28;20026;-82
2024/03/07 09:12:11;;;;;;;21.38;16.17;;;8.20;79.80;;;;;;5009898;28;20100;-91
2024/03/07 09:14:38;;;;;;;19.98;15.48;;;8.20;79.90;;;;;;5011885;28;20036;-86
2024/03/07 09:17:04;;;;;;;20.73;16.33;;;8.20;79.80;;;;;;4992726;28;20033;-91
2024/03/07 09:19:31;;;;;;;20.27;16.25;;;8.30;79.80;;;;;;5008377;28;20026;-86
2024/03/07 09:21:56;;;;;;;18.30;15.52;;;8.30;79.80;;;;;;4991223;28;20025;-87
2024/03/07 09:24:22;;;;;;;19.55;16.30;;;8.30;79.80;;;;;;5007115;28;20394;-85
2024/03/07 09:26:49;;;;;;;18.85;15.95;;;8.30;79.80;;;;;;4993366;28;20362;-79
2024/03/07 09:29:17;;;;;;;20.15;16.48;;;8.40;79.80;;;;;;4995548;28;20029;-94
2024/03/07 09:31:44;;;;;;;19.20;15.68;;;8.40;79.80;;;;;;5008623;28;20321;-79
2024/03/07 09:34:09;;;;;;;20.02;15.77;;;8.40;79.80;;;;;;4987419;28;20385;-80
2024/03/07 09:36:35;;;;;;;19.13;15.93;;;8.40;79.80;;;;;;5007144;28;20108;-78
2024/03/07 09:39:01;;;;;;;19.13;15.82;;;8.50;79.70;;;;;;5005922;28;20920;-78
2024/03/07 09:41:27;;;;;;;18.70;14.73;;;8.50;79.70;;;;;;5000710;28;20033;-93
2024/03/07 09:43:57;;;;;;;19.65;16.00;;;8.60;79.70;;;;;;5010475;28;20033;-80
2024/03/07 09:46:24;;;;;;;19.27;15.38;;;8.60;79.60;;;;;;4989732;28;20401;-79
2024/03/07 09:48:53;;;;;;;19.33;15.52;;;8.60;79.60;;;;;;4989718;28;20046;-91
2024/03/07 09:51:20;;;;;;;18.40;14.95;;;8.70;79.60;;;;;;5008202;28;20030;-94
2024/03/07 09:53:49;;;;;;;18.55;15.13;;;8.70;79.60;;;;;;5006674;28;20822;-80
2024/03/07 09:56:20;;;;;;;18.63;14.65;;;8.80;79.70;;;;;;5006252;28;20033;-79
2024/03/07 09:58:50;;;;;;;17.60;14.52;;;8.80;79.60;;;;;;5017785;28;20331;-78
2024/03/07 10:01:26;;;;;;;17.48;14.18;;;8.90;79.60;;;;;;5019803;28;20084;-80
2024/03/07 10:04:09;;;;;;;17.75;14.40;;;8.90;79.50;;;;;;5007740;28;20073;-90
2024/03/07 10:06:36;;;;;;;19.95;15.32;;;9.00;79.50;;;;;;4991714;28;20022;-95
2024/03/07 10:09:03;;;;;;;17.95;14.55;;;9.00;80.00;;;;;;4996992;28;20106;-91
2024/03/07 10:11:29;;;;;;;17.70;14.48;;;9.10;79.50;;;;;;4994110;28;20117;-91
2024/03/07 10:13:55;;;;;;;18.83;15.63;;;9.10;79.40;;;;;;4990044;28;20110;-79
2024/03/07 10:16:22;;;;;;;19.02;15.82;;;9.20;79.50;;;;;;4979701;28;20022;-79
2024/03/07 10:18:50;;;;;;;19.38;15.63;;;9.20;79.50;;;;;;4992062;28;20438;-80
2024/03/07 10:21:19;;;;;;;17.70;14.57;;;9.30;79.50;;;;;;5007789;28;20026;-90
2024/03/07 10:23:46;;;;;;;18.27;15.38;;;9.30;79.50;;;;;;5009420;28;20112;-80
2024/03/07 10:26:12;;;;;;;19.23;15.32;;;9.40;79.50;;;;;;4983762;28;20033;-91
2024/03/07 10:28:39;;;;;;;19.73;15.30;;;9.40;79.50;;;;;;5006290;28;20025;-89
2024/03/07 10:31:11;;;;;;;19.08;15.25;;;9.50;79.50;;;;;;4995995;28;20045;-90
2024/03/07 10:33:40;;;;;;;18.42;14.80;;;9.60;79.50;;;;;;5009231;28;20025;-78
2024/03/07 10:36:10;;;;;;;18.90;15.00;;;9.60;79.50;;;;;;4995011;28;20493;-78
2024/03/07 10:38:44;;;;;;;18.48;15.18;;;9.70;79.50;;;;;;4997749;28;20028;-93
2024/03/07 10:41:11;;;;;;;18.52;15.05;;;9.80;79.50;;;;;;5010311;28;20030;-78
2024/03/07 10:43:39;;;;;;;18.55;14.90;;;9.80;79.40;;;;;;5003918;28;20026;-90
2024/03/07 10:46:08;;;;;;;18.23;15.38;;;9.90;79.40;;;;;;5011366;28;20089;-92
2024/03/07 10:48:39;;;;;;;19.20;14.93;;;10.00;79.40;;;;;;5013161;28;20133;-89
2024/03/07 10:51:30;;;;;;;18.48;15.15;;;10.00;79.40;;;;;;4994387;28;20057;-91
2024/03/07 10:54:14;;;;;;;17.98;13.50;;;10.10;79.40;;;;;;5011389;28;20034;-92
2024/03/07 10:57:08;;;;;;;17.67;14.73;;;10.10;79.40;;;;;;5014661;28;20088;-81
2024/03/07 10:59:39;;;;;;;19.08;15.20;;;10.20;79.30;;;;;;4977236;28;20034;-89
2024/03/07 11:02:29;;;;;;;19.67;15.60;;;10.30;79.30;;;;;;4993255;28;20030;-90
2024/03/07 11:04:56;;;;;;;17.60;14.32;;;10.30;79.30;;;;;;4991811;28;20041;-88
2024/03/07 11:07:23;;;;;;;17.55;14.55;;;10.40;79.30;;;;;;4998316;28;20030;-82
2024/03/07 11:09:51;;;;;;;17.90;14.30;;;10.40;79.40;;;;;;4992709;28;20034;-79
2024/03/07 11:12:21;;;;;;;19.98;15.65;;;10.50;79.40;;;;;;4988517;28;20053;-78
2024/03/07 11:14:50;;;;;;;19.92;16.00;;;10.60;79.50;;;;;;4992717;28;20044;-81
2024/03/07 11:17:20;;;;;;;19.35;15.50;;;10.70;79.50;;;;;;4998720;28;20034;-81
2024/03/07 11:19:47;;;;;;;19.85;16.23;;;10.70;79.60;;;;;;4998686;28;20130;-81
2024/03/07 11:22:29;;;;;;;21.00;15.60;;;10.70;79.60;;;;;;5009797;28;20041;-81
2024/03/07 11:25:06;;;;;;;18.88;14.95;;;10.80;79.70;;;;;;5003142;28;20034;-81
2024/03/07 11:27:50;;;;;;;18.13;15.38;;;10.90;79.70;;;;;;5010087;28;20030;-95
2024/03/07 11:30:17;;;;;;;18.35;14.80;;;10.90;79.70;;;;;;5010031;28;20038;-79
2024/03/07 11:32:44;;;;;;;17.15;14.43;;;11.00;79.70;;;;;;4988575;28;20207;-79
2024/03/07 11:35:14;;;;;;;18.10;14.55;;;11.10;79.80;;;;;;5004208;28;20037;-89
2024/03/07 11:37:46;;;;;;;20.00;15.75;;;11.10;79.90;;;;;;5002456;28;20442;-81
2024/03/07 11:40:19;;;;;;;20.40;15.77;;;11.20;79.90;;;;;;4998987;28;20571;-82
2024/03/07 11:42:52;;;;;;;19.05;15.18;;;11.20;79.90;;;;;;5010025;28;20066;-94
2024/03/07 11:45:25;;;;;;;18.95;14.15;;;11.30;79.90;;;;;;5000797;28;20037;-92
2024/03/07 11:48:06;;;;;;;18.80;14.30;;;11.30;80.50;;;;;;4995575;28;20142;-90
2024/03/07 11:50:34;;;;;;;18.60;14.90;;;11.40;80.00;;;;;;5004957;28;20033;-80
2024/03/07 11:53:02;;;;;;;18.60;14.88;;;11.40;79.90;;;;;;5006906;28;20030;-91
2024/03/07 11:55:50;;;;;;;18.23;14.98;;;11.50;80.00;;;;;;4993772;28;20029;-80
2024/03/07 11:58:23;;;;;;;18.65;14.82;;;11.60;80.00;;;;;;4999758;28;20035;-91
2024/03/07 12:00:53;;;;;;;19.23;14.73;;;11.60;80.00;;;;;;5008008;28;20034;-81
2024/03/07 12:03:21;;;;;;;20.33;15.30;;;11.60;79.90;;;;;;4975185;28;20057;-91
2024/03/07 12:05:56;;;;;;;20.63;15.43;;;11.70;80.00;;;;;;5007852;28;20034;-93
2024/03/07 12:08:23;;;;;;;19.10;14.90;;;11.70;80.10;;;;;;4993705;28;20022;-83
2024/03/07 12:10:53;;;;;;;19.35;15.15;;;11.80;80.10;;;;;;5004203;28;20124;-81
2024/03/07 12:13:19;;;;;;;18.73;14.98;;;11.80;80.10;;;;;;4992571;28;20095;-81
2024/03/07 12:15:46;;;;;;;17.58;14.50;;;11.80;80.10;;;;;;4992947;28;20030;-80
2024/03/07 12:18:17;;;;;;;19.20;14.73;;;11.90;80.10;;;;;;5295628;23;20222;-92
2024/03/07 12:20:50;;;;;;;17.40;14.50;;;11.90;80.10;;;;;;5003398;28;20037;-96
2024/03/07 12:23:19;;;;;;;19.00;14.73;;;12.00;80.20;;;;;;5029639;28;20050;-79
2024/03/07 12:25:47;;;;;;;17.63;13.80;;;12.00;80.10;;;;;;4993831;28;20269;-96
2024/03/07 12:28:19;;;;;;;17.85;13.90;;;12.10;80.10;;;;;;5115714;23;21243;-96
2024/03/07 12:30:56;;;;;;;17.85;14.60;;;12.10;80.10;;;;;;5011733;28;20481;-80
2024/03/07 12:33:26;;;;;;;17.33;13.93;;;12.20;80.10;;;;;;5019084;28;20549;-96
2024/03/07 12:36:00;;;;;;;17.10;14.15;;;12.20;80.00;;;;;;4992052;28;20462;-81
2024/03/07 12:38:35;;;;;;;18.00;13.88;;;12.20;80.00;;;;;;4997920;28;20041;-94